Terminal Aerodrome Forecast
Issued by NWS

Home | Current Version | Previous Version | Text Only | Print | Product List | Glossary On
Versions: 1 2 3 4 5 6 7 8 9 10 11 12 13 14 15 16
361
FTUS46 KMTR 210545
TAFMRY
TAF
KMRY 210545Z 2106/2206 21005KT P6SM VCSH BKN035
     FM211700 24010KT P6SM VCSH SCT050 BKN100
     FM212200 20007KT P6SM VCSH SCT050 BKN100=

USA.gov is the U.S. government's official web portal to all federal, state and local government web resources and services.